Time;durP1;ratioP1;P1;durP2;ratioP2;P2;SDS_P1;SDS_P2;PMS_P1;PMS_P2;Temp;Humidity;BMP_temperature;BMP_pressure;BME280_temperature;BME280_humidity;BME280_pressure;Samples;Min_cycle;Max_cycle;Signal;HPM_P1;HPM_P2
2022/11/06 00:01:41;;;;;;;17.20;11.57;;;;;;;6.19;74.26;97100.97;6217113;23;20400;-76
2022/11/06 00:04:09;;;;;;;19.35;12.65;;;;;;;6.13;74.33;97105.91;6217078;23;20035;-76
2022/11/06 00:06:48;;;;;;;16.92;11.05;;;;;;;6.09;74.56;97101.97;6217065;23;20028;-76
2022/11/06 00:09:17;;;;;;;15.90;10.63;;;;;;;6.05;74.54;97098.00;6223280;23;20024;-76
2022/11/06 00:11:47;;;;;;;16.15;10.77;;;;;;;6.04;74.75;97104.16;6242270;23;20023;-76
2022/11/06 00:14:15;;;;;;;13.93;10.18;;;;;;;6.07;74.93;97102.09;6242131;23;20012;-76
2022/11/06 00:16:44;;;;;;;15.63;10.38;;;;;;;6.08;75.03;97098.56;6225595;23;20048;-76
2022/11/06 00:19:12;;;;;;;16.33;11.48;;;;;;;6.11;74.91;97100.06;6217561;23;20025;-76
2022/11/06 00:21:40;;;;;;;14.45;9.80;;;;;;;6.09;74.85;97100.19;6217476;23;20020;-76
2022/11/06 00:24:08;;;;;;;16.02;11.48;;;;;;;6.04;74.54;97097.22;6218312;23;20025;-76
2022/11/06 00:26:36;;;;;;;14.40;9.48;;;;;;;6.04;74.94;97094.63;6217760;23;20350;-76
2022/11/06 00:29:06;;;;;;;14.63;10.68;;;;;;;6.06;75.10;97087.53;6215887;23;20027;-76
2022/11/06 00:31:36;;;;;;;16.55;10.73;;;;;;;6.07;74.69;97091.72;6216573;23;20103;-76
2022/11/06 00:34:06;;;;;;;15.48;10.27;;;;;;;6.08;75.25;97079.59;6216811;23;20050;-76
2022/11/06 00:36:34;;;;;;;17.70;10.45;;;;;;;6.11;74.75;97074.97;6216395;23;20024;-76
2022/11/06 00:39:02;;;;;;;14.90;9.90;;;;;;;6.05;74.81;97072.94;6216204;23;20025;-76
2022/11/06 00:41:29;;;;;;;17.73;9.95;;;;;;;5.97;74.60;97078.81;6216434;23;20021;-76
2022/11/06 00:43:59;;;;;;;12.80;9.52;;;;;;;5.91;75.17;97071.59;6216070;23;20031;-76
2022/11/06 00:46:28;;;;;;;14.98;10.23;;;;;;;5.92;74.95;97072.41;6216869;23;20027;-76
2022/11/06 00:48:56;;;;;;;13.15;9.63;;;;;;;5.95;74.94;97062.63;6216101;23;20024;-76
2022/11/06 00:51:26;;;;;;;15.50;10.07;;;;;;;5.98;75.35;97061.50;6216555;23;20024;-79
2022/11/06 00:53:55;;;;;;;18.67;11.20;;;;;;;6.02;74.74;97068.03;6216303;23;20036;-76
2022/11/06 00:56:23;;;;;;;16.73;10.75;;;;;;;6.07;75.09;97065.84;6215545;23;20651;-76
2022/11/06 00:58:51;;;;;;;16.35;10.63;;;;;;;6.09;74.43;97074.28;6216098;23;20020;-76
2022/11/06 01:01:21;;;;;;;17.83;10.60;;;;;;;6.09;74.37;97069.09;6216723;23;20021;-76
2022/11/06 01:03:53;;;;;;;17.38;10.65;;;;;;;6.10;74.48;97072.50;6216172;23;20024;-76
2022/11/06 01:06:22;;;;;;;17.10;11.07;;;;;;;6.10;74.17;97072.50;6216070;23;20025;-76
2022/11/06 01:08:50;;;;;;;16.35;10.52;;;;;;;6.11;74.64;97066.38;6215800;23;20017;-76
2022/11/06 01:11:21;;;;;;;18.23;11.88;;;;;;;6.11;74.04;97062.00;6215694;23;20020;-76
2022/11/06 01:13:50;;;;;;;17.10;10.80;;;;;;;6.08;74.21;97069.22;6215810;23;20031;-76
2022/11/06 01:16:18;;;;;;;19.75;11.73;;;;;;;6.03;74.02;97064.47;6216176;23;20020;-76
2022/11/06 01:18:45;;;;;;;16.05;10.73;;;;;;;6.01;74.60;97066.41;6215569;23;20079;-76
2022/11/06 01:21:16;;;;;;;15.52;10.35;;;;;;;6.02;74.84;97067.22;6215809;23;20021;-76
2022/11/06 01:23:44;;;;;;;13.27;9.40;;;;;;;6.03;74.64;97074.84;6215934;23;20075;-76
2022/11/06 01:26:14;;;;;;;15.38;9.65;;;;;;;6.06;74.96;97079.75;6215371;23;20028;-76
2022/11/06 01:28:43;;;;;;;13.43;9.05;;;;;;;6.10;74.76;97075.94;6215513;23;20028;-76
2022/11/06 01:31:14;;;;;;;12.27;8.55;;;;;;;6.10;74.13;97073.34;6215573;23;20531;-76
2022/11/06 01:33:42;;;;;;;11.55;8.40;;;;;;;6.10;73.97;97067.31;6215768;23;20028;-76
2022/11/06 01:36:10;;;;;;;15.90;9.65;;;;;;;6.09;74.04;97069.09;6215577;23;20075;-76
2022/11/06 01:38:41;;;;;;;14.18;8.90;;;;;;;6.11;74.50;97067.19;6215234;23;20020;-76
2022/11/06 01:41:12;;;;;;;16.88;11.35;;;;;;;6.10;74.04;97060.38;6215663;23;20292;-76
2022/11/06 01:43:46;;;;;;;16.02;10.00;;;;;;;6.09;73.72;97065.69;6215706;23;20020;-76
2022/11/06 01:46:14;;;;;;;17.17;10.63;;;;;;;6.05;73.54;97067.75;6215628;23;20020;-76
2022/11/06 01:48:45;;;;;;;15.40;9.50;;;;;;;6.02;73.66;97072.41;6214861;23;20535;-76
2022/11/06 01:51:14;;;;;;;12.88;9.20;;;;;;;6.01;73.71;97073.34;6215070;23;20465;-76
2022/11/06 01:53:43;;;;;;;11.90;8.60;;;;;;;6.02;73.99;97067.22;6214934;23;20031;-76
2022/11/06 01:56:14;;;;;;;14.90;10.07;;;;;;;6.02;73.97;97062.88;6215116;23;20021;-76
2022/11/06 01:58:44;;;;;;;15.13;11.38;;;;;;;6.01;73.75;97057.81;6215192;23;20027;-76
2022/11/06 02:01:13;;;;;;;14.00;9.60;;;;;;;5.99;73.80;97057.94;6215035;23;20024;-76
2022/11/06 02:03:47;;;;;;;13.30;8.80;;;;;;;5.98;74.09;97061.50;6214981;23;20021;-76
2022/11/06 02:06:14;;;;;;;11.90;8.85;;;;;;;6.01;73.97;97063.81;6215529;23;20024;-76
2022/11/06 02:08:43;;;;;;;10.70;7.10;;;;;;;6.04;73.94;97066.13;6215150;23;20072;-76
2022/11/06 02:11:11;;;;;;;11.00;7.15;;;;;;;6.07;74.31;97067.63;6215759;23;20020;-76
2022/11/06 02:13:48;;;;;;;10.35;8.18;;;;;;;6.13;74.49;97065.28;6215495;23;20028;-76
2022/11/06 02:16:21;;;;;;;11.88;8.80;;;;;;;6.15;73.89;97055.59;6215644;23;20021;-76
2022/11/06 02:19:00;;;;;;;13.13;10.10;;;;;;;6.12;73.43;97048.13;6215076;23;20024;-76
2022/11/06 02:21:53;;;;;;;13.48;9.27;;;;;;;6.08;73.21;97046.75;6215589;23;20028;-76
2022/11/06 02:24:30;;;;;;;;;;;;;;;6.09;74.06;97056.16;6215292;23;20020;-76
2022/11/06 02:27:10;;;;;;;10.43;8.00;;;;;;;6.04;74.16;97049.78;6215341;23;19915;-76
2022/11/06 02:29:45;;;;;;;10.07;7.53;;;;;;;6.06;73.49;97053.06;6214806;23;20548;-76
2022/11/06 02:32:18;;;;;;;10.75;6.65;;;;;;;6.11;74.58;97062.00;6215047;23;20543;-76
2022/11/06 02:34:50;;;;;;;9.63;6.90;;;;;;;6.21;75.08;97055.97;6215304;23;20407;-76
2022/11/06 02:37:24;;;;;;;9.50;7.47;;;;;;;6.29;75.73;97045.72;6214833;23;20456;-76
2022/11/06 02:39:55;;;;;;;11.32;8.25;;;;;;;6.30;73.81;97050.75;6214955;23;20016;-76
2022/11/06 02:42:27;;;;;;;11.25;8.05;;;;;;;6.24;72.93;97053.09;6215170;23;20357;-76
2022/11/06 02:44:57;;;;;;;11.20;7.38;;;;;;;6.19;73.06;97054.34;6215007;23;20534;-76
2022/11/06 02:47:29;;;;;;;10.15;6.95;;;;;;;6.13;72.52;97052.31;6215200;23;20017;-76
2022/11/06 02:50:03;;;;;;;8.80;6.88;;;;;;;6.10;72.80;97051.78;6214642;23;20017;-76
2022/11/06 02:52:34;;;;;;;11.18;7.53;;;;;;;6.06;73.12;97048.69;6215618;23;20027;-76
2022/11/06 02:55:08;;;;;;;10.15;7.72;;;;;;;6.05;72.58;97036.66;6220144;22;20000;-81
2022/11/06 02:57:41;;;;;;;10.45;7.20;;;;;;;6.01;72.57;97032.72;6240806;23;20025;-81
2022/11/06 03:00:12;;;;;;;12.48;7.78;;;;;;;5.96;72.26;97032.34;6240527;23;20244;-81
2022/11/06 03:02:44;;;;;;;13.55;7.45;;;;;;;5.88;72.06;97024.44;6240998;22;20471;-81
2022/11/06 03:05:17;;;;;;;9.50;7.20;;;;;;;5.80;72.43;97017.41;6241206;23;20028;-81
2022/11/06 03:07:52;;;;;;;11.40;7.30;;;;;;;5.74;72.51;97017.94;6241170;23;20041;-81
2022/11/06 03:10:21;;;;;;;10.15;6.50;;;;;;;5.65;72.43;97009.25;6240671;23;20040;-81
2022/11/06 03:12:56;;;;;;;10.75;7.55;;;;;;;5.61;72.79;97018.25;6240503;23;20409;-81
2022/11/06 03:15:34;;;;;;;7.85;6.45;;;;;;;5.58;72.70;97013.38;6241242;23;20017;-81
2022/11/06 03:18:10;;;;;;;8.65;7.03;;;;;;;5.51;72.51;97013.13;6240941;23;20021;-81
2022/11/06 03:20:43;;;;;;;10.05;7.30;;;;;;;5.48;72.48;97013.38;6241432;23;20017;-81
2022/11/06 03:23:16;;;;;;;11.40;6.97;;;;;;;5.43;72.37;97010.41;6241033;23;20008;-81
2022/11/06 03:25:47;;;;;;;10.50;7.10;;;;;;;5.36;72.37;96998.97;6240920;23;20000;-81
2022/11/06 03:28:25;;;;;;;10.13;6.93;;;;;;;5.29;72.67;97003.91;6243208;22;20000;-81
2022/11/06 03:30:57;;;;;;;8.88;6.97;;;;;;;5.30;73.24;96996.94;6243847;22;20016;-81
2022/11/06 03:33:32;;;;;;;9.10;6.93;;;;;;;5.32;73.13;96993.25;6243654;22;20005;-81
2022/11/06 03:36:07;;;;;;;10.10;7.18;;;;;;;5.31;72.81;96991.66;6242100;23;20020;-81
2022/11/06 03:38:39;;;;;;;11.98;8.07;;;;;;;5.27;72.72;96987.69;6242292;22;20036;-81
2022/11/06 03:41:14;;;;;;;9.05;7.03;;;;;;;5.21;72.75;96984.84;6243803;22;20016;-80
2022/11/06 03:43:45;;;;;;;;;;;;;;;5.23;73.62;96982.94;6243426;22;20011;-81
2022/11/06 03:46:19;;;;;;;8.98;6.03;;;;;;;5.20;72.88;96976.25;6242622;22;19910;-81
2022/11/06 03:48:51;;;;;;;11.55;7.75;;;;;;;5.20;73.07;96968.50;6242722;22;20020;-82
2022/11/06 03:51:23;;;;;;;12.27;8.05;;;;;;;5.18;73.42;96964.41;6242502;23;20015;-81
2022/11/06 03:53:54;;;;;;;11.40;7.53;;;;;;;5.16;72.97;96962.81;6242305;22;20009;-81
2022/11/06 03:56:29;;;;;;;9.95;7.13;;;;;;;5.14;73.42;96961.31;6242254;23;20043;-81
2022/11/06 03:59:02;;;;;;;9.40;6.85;;;;;;;5.11;73.55;96953.81;6241819;22;20032;-81
2022/11/06 04:01:35;;;;;;;12.85;7.53;;;;;;;5.03;73.33;96948.50;6243045;22;20056;-80
2022/11/06 04:04:10;;;;;;;11.18;7.28;;;;;;;4.95;73.51;96952.63;6242432;22;20047;-81
2022/11/06 04:06:42;;;;;;;10.43;6.40;;;;;;;4.91;73.73;96959.00;6242259;23;20032;-81
2022/11/06 04:14:52;;;;;;;9.43;7.15;;;;;;;4.77;74.22;96962.03;6242199;22;20011;-81
2022/11/06 04:17:23;;;;;;;11.40;6.88;;;;;;;4.75;74.51;96971.69;6243591;22;20027;-81
2022/11/06 04:19:55;;;;;;;11.80;8.20;;;;;;;4.75;74.31;96969.91;6243799;22;20036;-81
2022/11/06 04:22:39;;;;;;;10.30;6.75;;;;;;;4.77;74.73;96961.19;6244311;22;20027;-81
2022/11/06 04:28:18;;;;;;;10.27;6.95;;;;;;;4.77;74.75;96962.03;6244261;23;20008;-81
2022/11/06 04:31:00;;;;;;;13.35;8.05;;;;;;;4.75;75.13;96956.19;6244150;22;20000;-81
2022/11/06 04:33:37;;;;;;;11.40;7.97;;;;;;;4.73;75.25;96947.75;6244396;22;20025;-81
2022/11/06 04:36:16;;;;;;;13.50;8.27;;;;;;;4.72;75.36;96938.34;6244603;22;20004;-81
2022/11/06 04:38:55;;;;;;;9.27;6.80;;;;;;;4.71;75.65;96936.72;6244314;22;20016;-81
2022/11/06 04:41:33;;;;;;;9.77;7.13;;;;;;;4.68;75.60;96939.56;6244871;22;20000;-81
2022/11/06 04:44:05;;;;;;;10.68;6.95;;;;;;;4.70;75.23;96950.59;6244092;23;20021;-81
2022/11/06 04:46:39;;;;;;;9.73;6.93;;;;;;;4.69;75.41;96949.78;6244261;22;20027;-81
2022/11/06 04:49:09;;;;;;;9.82;7.05;;;;;;;4.67;75.16;96945.69;6243802;22;20011;-81
2022/11/06 04:51:39;;;;;;;10.77;7.05;;;;;;;4.66;75.27;96928.56;6243725;22;20021;-81
2022/11/06 04:54:08;;;;;;;10.73;6.90;;;;;;;4.61;75.21;96926.38;6243790;22;20092;-81
2022/11/06 04:56:37;;;;;;;10.95;7.00;;;;;;;4.58;75.35;96920.69;6243858;22;20043;-81
2022/11/06 04:59:16;;;;;;;12.80;7.75;;;;;;;4.54;75.86;96914.97;6243724;22;20017;-81
2022/11/06 05:01:46;;;;;;;10.27;7.30;;;;;;;4.51;76.11;96918.63;6243941;22;20009;-81
2022/11/06 05:04:14;;;;;;;11.85;6.97;;;;;;;4.52;76.07;96927.19;6244152;22;20011;-81
2022/11/06 05:06:42;;;;;;;10.30;7.43;;;;;;;4.51;75.87;96925.56;6243297;22;20080;-81
2022/11/06 05:09:10;;;;;;;15.52;8.15;;;;;;;4.54;76.34;96915.75;6243793;23;20012;-81
2022/11/06 05:11:38;;;;;;;10.75;7.57;;;;;;;4.60;76.23;96903.28;6243712;22;20020;-81
2022/11/06 05:14:06;;;;;;;14.55;8.65;;;;;;;4.62;76.40;96896.22;6243461;22;20021;-81
2022/11/06 05:16:34;;;;;;;13.02;8.05;;;;;;;4.66;76.35;96897.56;6243791;22;20056;-81
2022/11/06 05:19:15;;;;;;;10.88;8.02;;;;;;;4.69;76.56;96898.09;6242801;23;20016;-81
2022/11/06 05:24:28;;;;;;;11.65;8.35;;;;;;;4.71;76.15;96879.88;6244662;22;20001;-81
2022/11/06 05:26:56;;;;;;;14.48;9.57;;;;;;;4.73;76.53;96881.34;6244796;22;20051;-81
2022/11/06 05:29:26;;;;;;;16.08;10.55;;;;;;;4.77;76.69;96869.00;6242956;22;20004;-81
2022/11/06 05:31:54;;;;;;;16.85;9.02;;;;;;;4.80;76.93;96866.13;6243906;22;20016;-81
2022/11/06 05:34:23;;;;;;;15.73;9.80;;;;;;;4.80;76.72;96868.69;6242625;23;20020;-81
2022/11/06 05:36:51;;;;;;;15.57;9.43;;;;;;;4.80;76.63;96868.69;6240880;22;20008;-81
2022/11/06 05:39:19;;;;;;;13.85;9.38;;;;;;;4.86;76.91;96867.34;6239675;23;20072;-81
2022/11/06 05:41:47;;;;;;;13.00;9.10;;;;;;;4.91;76.95;96871.13;6242192;22;20012;-81
2022/11/06 05:44:15;;;;;;;12.85;9.15;;;;;;;4.98;76.69;96865.41;6243119;22;20005;-81
2022/11/06 05:46:43;;;;;;;16.90;10.98;;;;;;;4.98;76.63;96866.19;6236108;22;20033;-81
2022/11/06 05:49:16;;;;;;;14.38;8.60;;;;;;;4.99;76.86;96869.63;6228533;23;20068;-80
2022/11/06 05:51:45;;;;;;;14.90;8.98;;;;;;;5.02;77.29;96882.25;6228786;23;20071;-81
2022/11/06 05:54:13;;;;;;;13.68;8.85;;;;;;;5.06;77.48;96888.78;6229763;23;20017;-81
2022/11/06 05:56:41;;;;;;;12.68;9.25;;;;;;;5.11;77.42;96889.97;6230794;23;20035;-81
2022/11/06 05:59:09;;;;;;;12.55;8.38;;;;;;;5.13;76.80;96890.66;6228603;23;20024;-81
2022/11/06 06:01:37;;;;;;;12.88;8.70;;;;;;;5.12;76.40;96893.41;6232482;22;20035;-81
2022/11/06 06:04:05;;;;;;;10.82;7.28;;;;;;;5.08;76.03;96902.41;6226165;23;20017;-81
2022/11/06 06:06:33;;;;;;;10.27;7.20;;;;;;;5.02;76.43;96898.59;6225241;23;20096;-81
2022/11/06 06:09:03;;;;;;;10.80;7.32;;;;;;;4.98;76.01;96906.75;6227916;23;20397;-81
2022/11/06 06:11:31;;;;;;;10.93;7.53;;;;;;;4.94;75.86;96916.56;6227585;23;20076;-81
2022/11/06 06:13:59;;;;;;;9.00;6.63;;;;;;;4.91;75.70;96922.00;6224881;23;20025;-81
2022/11/06 06:16:27;;;;;;;10.60;6.97;;;;;;;4.85;75.53;96925.94;6221509;23;20060;-80
2022/11/06 06:18:55;;;;;;;9.23;7.25;;;;;;;4.79;75.94;96934.28;6229678;23;20076;-81
2022/11/06 06:21:22;;;;;;;9.35;6.15;;;;;;;4.78;76.23;96937.81;6224773;23;20072;-81
2022/11/06 06:23:50;;;;;;;8.68;6.03;;;;;;;4.74;76.04;96932.09;6234944;23;20025;-81
2022/11/06 06:26:19;;;;;;;10.75;6.72;;;;;;;4.70;75.62;96940.25;6222431;23;20104;-79
2022/11/06 06:28:49;;;;;;;8.00;6.18;;;;;;;4.64;75.76;96933.06;6220391;23;20017;-81
2022/11/06 06:31:16;;;;;;;9.85;6.20;;;;;;;4.58;75.84;96929.25;6224322;23;20016;-81
2022/11/06 06:33:44;;;;;;;8.77;6.07;;;;;;;4.56;75.64;96935.50;6225145;23;20016;-80
2022/11/06 06:36:12;;;;;;;11.35;7.22;;;;;;;4.52;75.86;96942.69;6239244;23;20076;-79
2022/11/06 06:38:39;;;;;;;8.75;6.28;;;;;;;4.45;75.61;96921.75;6237137;23;20026;-81
2022/11/06 06:41:11;;;;;;;9.52;6.47;;;;;;;4.42;76.19;96921.22;6220849;23;20543;-81
2022/11/06 06:43:40;;;;;;;9.73;6.65;;;;;;;4.37;76.16;96910.47;6224398;23;20017;-80
2022/11/06 06:46:08;;;;;;;10.30;6.47;;;;;;;4.29;75.85;96917.13;6226050;23;20017;-81
2022/11/06 06:48:36;;;;;;;9.02;6.35;;;;;;;4.25;76.04;96928.69;6227158;23;20025;-81
2022/11/06 06:51:06;;;;;;;10.65;6.88;;;;;;;4.26;76.86;96916.56;6229138;23;20020;-81
2022/11/06 06:53:34;;;;;;;10.60;6.93;;;;;;;4.31;76.42;96914.44;6231016;23;20020;-81
2022/11/06 06:56:02;;;;;;;10.20;7.15;;;;;;;4.34;76.09;96903.81;6226498;23;20034;-81
2022/11/06 06:58:31;;;;;;;9.45;6.57;;;;;;;4.40;76.41;96905.06;6228605;23;20016;-81
2022/11/06 07:01:01;;;;;;;9.38;7.05;;;;;;;4.44;76.06;96914.97;6219398;23;20027;-81
2022/11/06 07:03:30;;;;;;;10.93;7.25;;;;;;;4.49;76.25;96920.53;6219649;23;20357;-81
2022/11/06 07:05:58;;;;;;;10.27;7.07;;;;;;;4.54;75.80;96931.28;6220295;23;20004;-81
2022/11/06 07:09:07;;;;;;;10.60;6.82;;;;;;;4.62;75.99;96933.19;6223779;23;20104;-81
2022/11/06 07:11:36;;;;;;;9.05;6.18;;;;;;;4.69;75.83;96943.78;6217168;23;20044;-80
2022/11/06 07:14:04;;;;;;;10.77;6.40;;;;;;;4.64;75.81;96936.44;6216927;23;20044;-81
2022/11/06 07:16:34;;;;;;;14.85;6.82;;;;;;;4.63;75.89;96939.16;6217251;23;20527;-81
2022/11/06 07:19:02;;;;;;;9.52;7.03;;;;;;;4.61;75.72;96943.66;6217327;23;20016;-80
2022/11/06 07:21:31;;;;;;;9.63;6.93;;;;;;;4.56;75.56;96936.31;6216858;23;20024;-80
2022/11/06 07:23:59;;;;;;;9.60;6.60;;;;;;;4.50;75.65;96935.09;6217521;23;20027;-81
2022/11/06 07:26:34;;;;;;;9.60;7.00;;;;;;;4.49;75.91;96922.31;6217636;23;20052;-80
2022/11/06 07:29:16;;;;;;;11.02;7.15;;;;;;;4.48;75.89;96929.25;6218004;23;20556;-81
2022/11/06 07:31:46;;;;;;;8.93;6.38;;;;;;;4.50;76.20;96935.09;6217593;23;20079;-80
2022/11/06 07:34:22;;;;;;;9.75;5.82;;;;;;;4.54;76.05;96930.47;6218842;23;20027;-81
2022/11/06 07:36:51;;;;;;;12.85;7.78;;;;;;;4.56;75.86;96938.91;6225915;23;20067;-81
2022/11/06 07:39:20;;;;;;;12.35;7.93;;;;;;;4.50;75.88;96924.78;6225751;23;20043;-81
2022/11/06 07:41:53;;;;;;;10.55;7.30;;;;;;;4.51;75.93;96926.38;6223132;23;20013;-83
2022/11/06 07:44:43;;;;;;;10.32;7.00;;;;;;;4.52;77.58;96920.25;6223384;23;20024;-81
2022/11/06 07:47:18;;;;;;;9.20;6.63;;;;;;;4.59;76.61;96902.47;6228496;23;20063;-81
2022/11/06 07:49:46;;;;;;;12.38;7.05;;;;;;;4.70;76.60;96888.56;6228408;23;20062;-81
2022/11/06 07:52:17;;;;;;;8.55;5.82;;;;;;;4.82;76.37;96882.31;6231391;23;20067;-80
2022/11/06 07:54:45;;;;;;;9.15;6.70;;;;;;;4.92;76.33;96875.34;6224321;23;20452;-78
2022/11/06 07:57:13;;;;;;;9.40;6.63;;;;;;;5.05;76.22;96862.13;6217841;23;20024;-78
2022/11/06 07:59:41;;;;;;;10.00;6.50;;;;;;;5.20;76.33;96859.88;6217352;23;20023;-79
2022/11/06 08:02:10;;;;;;;9.57;5.60;;;;;;;5.35;76.22;96849.88;6217346;23;20021;-79
2022/11/06 08:04:39;;;;;;;8.32;5.65;;;;;;;5.47;75.93;96840.19;6218155;23;20024;-78
2022/11/06 08:07:07;;;;;;;9.27;6.07;;;;;;;5.58;75.36;96842.56;6216962;23;20075;-79
2022/11/06 08:09:35;;;;;;;7.65;5.50;;;;;;;5.72;75.33;96839.47;6216906;23;20082;-77
2022/11/06 08:12:03;;;;;;;7.95;6.18;;;;;;;5.84;74.88;96832.34;6216587;23;20028;-78
2022/11/06 08:14:30;;;;;;;8.13;5.63;;;;;;;6.00;74.77;96834.31;6216721;23;20020;-77
2022/11/06 08:16:58;;;;;;;7.93;4.82;;;;;;;6.16;74.55;96831.03;6216903;23;20036;-77
2022/11/06 08:19:25;;;;;;;6.70;5.28;;;;;;;6.34;74.39;96824.09;6216294;23;20479;-77
2022/11/06 08:21:54;;;;;;;8.40;5.75;;;;;;;6.51;73.48;96825.03;6216545;23;20017;-78
2022/11/06 08:24:22;;;;;;;8.18;6.18;;;;;;;6.69;73.31;96816.41;6216524;23;20032;-77
2022/11/06 08:26:50;;;;;;;9.00;5.70;;;;;;;6.88;73.14;96805.03;6216994;23;20024;-78
2022/11/06 08:29:17;;;;;;;8.75;6.55;;;;;;;7.06;72.41;96791.97;6215669;23;20016;-78
2022/11/06 08:31:45;;;;;;;8.07;5.63;;;;;;;7.15;71.87;96783.25;6215725;23;20057;-77
2022/11/06 08:34:12;;;;;;;8.13;5.78;;;;;;;7.22;71.60;96776.50;6215611;23;20043;-77
2022/11/06 08:36:43;;;;;;;8.43;5.90;;;;;;;7.29;70.81;96766.31;6216241;23;20028;-76
2022/11/06 08:39:17;;;;;;;8.52;6.57;;;;;;;7.33;70.85;96771.03;6215823;23;20058;-77
2022/11/06 08:41:45;;;;;;;8.52;6.18;;;;;;;7.37;70.88;96766.34;6215873;23;20020;-78
2022/11/06 08:44:12;;;;;;;8.57;6.50;;;;;;;7.40;70.83;96769.41;6215849;23;20115;-77
2022/11/06 08:46:40;;;;;;;8.98;6.55;;;;;;;7.49;70.61;96772.03;6215698;23;20473;-78
2022/11/06 08:49:07;;;;;;;10.95;7.53;;;;;;;7.59;70.41;96767.53;6215033;23;20016;-78
2022/11/06 08:51:35;;;;;;;9.27;6.70;;;;;;;7.73;70.62;96764.31;6215929;23;20018;-77
2022/11/06 08:54:03;;;;;;;10.40;7.18;;;;;;;7.99;69.82;96752.97;6216189;23;20024;-77
2022/11/06 08:59:50;;;;;;;11.38;6.55;;;;;;;8.60;68.74;96746.47;6219792;23;20032;-85
2022/11/06 09:02:43;;;;;;;8.18;5.90;;;;;;;8.81;67.27;96742.50;6220124;23;20019;-80
2022/11/06 09:05:22;;;;;;;10.77;7.22;;;;;;;9.08;67.01;96742.09;6220368;23;20025;-86
2022/11/06 09:08:05;;;;;;;8.25;6.70;;;;;;;9.34;65.64;96727.22;6190985;23;20346;-82
2022/11/06 09:13:57;;;;;;;8.73;6.47;;;;;;;10.01;63.98;96724.00;6190520;23;20031;-81
2022/11/06 09:16:26;;;;;;;6.93;6.05;;;;;;;10.38;62.95;96722.41;6192023;23;20013;-86
2022/11/06 09:18:56;;;;;;;8.50;6.25;;;;;;;10.83;62.01;96716.25;6190743;23;20025;-83
2022/11/06 09:21:24;;;;;;;6.75;5.15;;;;;;;11.34;60.48;96724.09;6191460;23;20071;-81
2022/11/06 09:23:55;;;;;;;7.97;5.80;;;;;;;11.99;59.25;96728.63;6192771;23;20017;-83
2022/11/06 09:26:36;;;;;;;7.40;5.93;;;;;;;12.96;54.57;96727.91;6192010;23;20021;-84
2022/11/06 09:29:24;;;;;;;7.22;5.90;;;;;;;13.54;52.99;96736.25;6192930;23;20096;-82
2022/11/06 09:31:58;;;;;;;11.07;7.40;;;;;;;13.81;52.59;96723.22;6198312;23;20461;-86
2022/11/06 09:34:32;;;;;;;8.80;5.75;;;;;;;13.80;52.09;96729.47;6196887;23;20037;-89
2022/11/06 09:37:01;;;;;;;6.03;5.22;;;;;;;13.68;52.13;96723.19;6191032;23;20017;-77
2022/11/06 09:39:29;;;;;;;6.47;5.15;;;;;;;13.71;52.63;96717.53;6188766;23;20029;-77
2022/11/06 09:42:00;;;;;;;5.88;5.05;;;;;;;13.74;51.33;96717.16;6195347;23;20021;-82
2022/11/06 09:44:46;;;;;;;6.78;5.57;;;;;;;13.90;51.00;96706.28;6197315;23;20584;-85
2022/11/06 09:47:20;;;;;;;7.03;6.03;;;;;;;14.04;50.24;96701.06;6194878;23;20021;-87
2022/11/06 09:50:04;;;;;;;7.22;6.07;;;;;;;13.95;50.02;96716.16;6193403;23;20017;-89
2022/11/06 09:52:37;;;;;;;6.13;5.07;;;;;;;13.69;50.31;96709.09;6195914;23;20017;-88
2022/11/06 09:55:13;;;;;;;6.80;6.00;;;;;;;13.31;51.47;96705.13;6192069;23;20036;-84
2022/11/06 09:57:46;;;;;;;7.05;5.90;;;;;;;12.95;52.19;96703.56;6189608;23;20083;-89
2022/11/06 10:00:17;;;;;;;7.22;5.78;;;;;;;12.38;53.28;96706.44;6187452;23;20020;-81
2022/11/06 10:02:48;;;;;;;7.07;5.93;;;;;;;11.78;54.71;96711.09;6187683;23;20024;-83
2022/11/06 10:05:24;;;;;;;7.72;6.53;;;;;;;11.33;56.01;96719.88;6192730;23;20027;-84
2022/11/06 10:07:56;;;;;;;8.98;7.13;;;;;;;11.01;57.08;96728.94;6193722;23;20017;-82
2022/11/06 10:10:28;;;;;;;7.80;6.33;;;;;;;10.69;57.76;96723.09;6195639;23;20028;-83
2022/11/06 10:13:02;;;;;;;;;;;;;;;10.47;58.58;96718.72;6194791;23;20021;-80
2022/11/06 10:15:36;;;;;;;8.07;6.07;;;;;;;10.20;59.35;96718.31;6192317;23;20317;-85
2022/11/06 10:18:12;;;;;;;7.90;6.85;;;;;;;10.06;60.63;96719.09;6191802;23;20017;-87
2022/11/06 10:20:47;;;;;;;9.95;6.55;;;;;;;10.06;60.65;96719.09;6193137;23;20024;-82
2022/11/06 10:23:20;;;;;;;15.45;10.32;;;;;;;10.07;60.65;96715.47;6195121;23;20093;-80
2022/11/06 10:25:55;;;;;;;;;;;;;;;10.02;61.16;96715.22;6193493;23;20021;-81
2022/11/06 10:28:42;;;;;;;8.82;6.75;;;;;;;10.59;60.23;96706.88;6193064;23;19916;-86
2022/11/06 10:31:18;;;;;;;8.40;6.80;;;;;;;11.25;58.73;96711.34;6192188;23;20021;-80
2022/11/06 10:33:56;;;;;;;9.82;6.07;;;;;;;11.77;56.63;96725.19;6191066;23;20021;-83
2022/11/06 10:36:36;;;;;;;6.93;6.18;;;;;;;11.47;57.04;96726.06;6189935;23;20021;-79
2022/11/06 10:39:15;;;;;;;7.57;5.93;;;;;;;11.88;57.59;96730.75;6191263;23;20024;-81
2022/11/06 10:41:50;;;;;;;7.28;6.57;;;;;;;12.22;56.37;96716.16;6192827;23;20024;-84
2022/11/06 10:44:25;;;;;;;10.57;6.25;;;;;;;11.88;56.73;96712.44;6193977;23;20032;-82
2022/11/06 10:47:00;;;;;;;6.97;6.28;;;;;;;11.45;57.31;96707.16;6196158;23;20017;-80
2022/11/06 10:49:38;;;;;;;7.40;6.03;;;;;;;11.02;58.68;96704.47;6194098;23;20044;-84
2022/11/06 10:52:19;;;;;;;7.57;6.47;;;;;;;10.70;60.03;96703.03;6192654;23;20076;-84
2022/11/06 10:55:03;;;;;;;7.10;5.85;;;;;;;10.49;60.66;96690.69;6192550;23;20096;-79
2022/11/06 10:57:41;;;;;;;7.75;6.90;;;;;;;10.38;61.65;96694.53;6193043;23;20017;-79
2022/11/06 11:00:12;;;;;;;6.90;6.20;;;;;;;10.37;62.83;96702.56;6191888;23;20071;-80
2022/11/06 11:02:46;;;;;;;12.32;9.43;;;;;;;10.35;61.62;96699.31;6191115;23;20020;-81
2022/11/06 11:05:17;;;;;;;9.60;8.07;;;;;;;10.19;61.47;96689.78;6190873;23;20021;-81
2022/11/06 11:07:48;;;;;;;;;;;;;;;10.09;62.12;96684.84;6190815;23;20028;-79
2022/11/06 11:10:27;;;;;;;8.85;7.60;;;;;;;10.03;62.85;96681.13;6190316;23;20264;-79
2022/11/06 11:13:02;;;;;;;7.53;6.57;;;;;;;10.15;62.13;96676.31;6190118;23;20051;-79
2022/11/06 11:15:42;;;;;;;7.18;6.43;;;;;;;10.24;61.80;96677.84;6189101;23;20017;-83
2022/11/06 11:18:18;;;;;;;8.60;7.00;;;;;;;10.18;61.29;96678.56;6188864;23;20043;-79
2022/11/06 11:20:47;;;;;;;7.40;6.47;;;;;;;10.04;61.62;96671.53;6188573;23;20088;-85
2022/11/06 11:23:18;;;;;;;6.47;5.72;;;;;;;9.89;61.84;96672.31;6187541;23;20036;-79
2022/11/06 11:25:48;;;;;;;7.43;6.05;;;;;;;9.79;62.43;96674.31;6187511;23;20021;-80
2022/11/06 11:28:37;;;;;;;7.95;5.88;;;;;;;9.72;62.61;96663.00;6189136;23;20073;-80
2022/11/06 11:31:08;;;;;;;6.78;5.97;;;;;;;9.67;62.54;96649.69;6183374;23;20021;-80
2022/11/06 11:33:38;;;;;;;8.38;6.47;;;;;;;9.59;62.43;96637.53;6190729;23;20028;-79
2022/11/06 11:36:09;;;;;;;6.70;5.60;;;;;;;9.66;62.35;96622.00;6189961;23;20313;-83
2022/11/06 11:38:40;;;;;;;6.53;5.72;;;;;;;9.72;61.91;96603.06;6188723;23;20099;-77
2022/11/06 11:41:11;;;;;;;6.85;6.07;;;;;;;9.69;61.53;96600.84;6189163;23;20021;-79
2022/11/06 11:43:40;;;;;;;5.95;5.18;;;;;;;9.57;61.46;96584.81;6188755;23;20415;-78
2022/11/06 11:46:20;;;;;;;5.63;5.05;;;;;;;9.32;61.46;96570.38;6188562;23;20025;-79
2022/11/06 11:48:51;;;;;;;7.18;6.07;;;;;;;9.15;62.47;96574.88;6189084;23;20025;-79
2022/11/06 11:51:27;;;;;;;6.90;5.95;;;;;;;9.27;62.40;96565.66;6188462;23;20027;-81
2022/11/06 11:53:57;;;;;;;6.25;5.65;;;;;;;9.76;61.35;96560.06;6188526;23;20027;-81
2022/11/06 11:56:27;;;;;;;7.57;6.38;;;;;;;10.27;60.28;96547.13;6189139;23;20531;-82
2022/11/06 11:59:18;;;;;;;9.40;7.00;;;;;;;10.59;58.83;96545.16;6188806;23;20025;-80
2022/11/06 12:01:47;;;;;;;9.07;6.63;;;;;;;10.64;59.08;96539.41;6189790;23;20021;-80
2022/11/06 12:04:25;;;;;;;9.40;7.35;;;;;;;10.52;58.82;96529.44;6188390;23;20021;-78
2022/11/06 12:06:56;;;;;;;8.25;6.30;;;;;;;10.36;59.06;96518.41;6190734;23;20405;-83
2022/11/06 12:09:25;;;;;;;9.15;6.22;;;;;;;10.11;59.49;96513.47;6194384;23;20021;-85
2022/11/06 12:11:55;;;;;;;7.72;6.35;;;;;;;9.96;60.19;96513.44;6194797;23;20044;-84
2022/11/06 12:14:34;;;;;;;15.60;12.30;;;;;;;9.82;61.41;96502.03;6195687;23;20021;-87
2022/11/06 12:17:09;;;;;;;7.82;6.50;;;;;;;9.68;60.66;96492.41;6193466;23;20030;-86